sensor_id;sensor_type;location;lat;lon;timestamp;P1;durP1;ratioP1;P2;durP2;ratioP2
44706;SDS011;30433;45.596;8.408;2023-08-20T00:02:18;10.25;;;9.15;;
44706;SDS011;30433;45.596;8.408;2023-08-20T00:08:26;10.32;;;9.25;;
44706;SDS011;30433;45.596;8.408;2023-08-20T00:21:06;15.50;;;9.52;;
44706;SDS011;30433;45.596;8.408;2023-08-20T00:27:10;9.75;;;8.80;;
44706;SDS011;30433;45.596;8.408;2023-08-20T00:33:12;9.95;;;8.98;;
44706;SDS011;30433;45.596;8.408;2023-08-20T00:39:15;9.20;;;8.30;;
44706;SDS011;30433;45.596;8.408;2023-08-20T00:45:19;13.35;;;8.60;;
44706;SDS011;30433;45.596;8.408;2023-08-20T00:51:21;9.73;;;8.75;;
44706;SDS011;30433;45.596;8.408;2023-08-20T00:57:25;9.65;;;8.70;;
44706;SDS011;30433;45.596;8.408;2023-08-20T01:03:30;10.50;;;9.48;;
44706;SDS011;30433;45.596;8.408;2023-08-20T01:09:34;9.93;;;8.82;;
44706;SDS011;30433;45.596;8.408;2023-08-20T01:15:44;10.50;;;8.98;;
44706;SDS011;30433;45.596;8.408;2023-08-20T01:21:52;9.55;;;8.55;;
44706;SDS011;30433;45.596;8.408;2023-08-20T01:28:18;10.35;;;8.55;;
44706;SDS011;30433;45.596;8.408;2023-08-20T01:34:22;10.73;;;9.73;;
44706;SDS011;30433;45.596;8.408;2023-08-20T01:40:24;10.65;;;9.55;;
44706;SDS011;30433;45.596;8.408;2023-08-20T01:46:28;10.98;;;8.95;;
44706;SDS011;30433;45.596;8.408;2023-08-20T01:52:30;13.82;;;9.60;;
44706;SDS011;30433;45.596;8.408;2023-08-20T01:58:32;10.32;;;9.05;;
44706;SDS011;30433;45.596;8.408;2023-08-20T02:04:36;12.75;;;9.90;;
44706;SDS011;30433;45.596;8.408;2023-08-20T02:10:39;9.75;;;8.75;;
44706;SDS011;30433;45.596;8.408;2023-08-20T02:16:42;9.90;;;9.00;;
44706;SDS011;30433;45.596;8.408;2023-08-20T02:22:46;12.38;;;9.65;;
44706;SDS011;30433;45.596;8.408;2023-08-20T02:28:49;10.75;;;9.25;;
44706;SDS011;30433;45.596;8.408;2023-08-20T02:34:52;10.43;;;9.25;;
44706;SDS011;30433;45.596;8.408;2023-08-20T02:40:56;14.70;;;9.75;;
44706;SDS011;30433;45.596;8.408;2023-08-20T02:46:58;11.27;;;9.48;;
44706;SDS011;30433;45.596;8.408;2023-08-20T02:53:00;10.65;;;9.60;;
44706;SDS011;30433;45.596;8.408;2023-08-20T02:59:05;10.68;;;9.68;;
44706;SDS011;30433;45.596;8.408;2023-08-20T03:05:07;12.02;;;9.65;;
44706;SDS011;30433;45.596;8.408;2023-08-20T03:11:10;11.45;;;9.80;;
44706;SDS011;30433;45.596;8.408;2023-08-20T03:17:13;13.43;;;9.07;;
44706;SDS011;30433;45.596;8.408;2023-08-20T03:23:16;12.10;;;9.30;;
44706;SDS011;30433;45.596;8.408;2023-08-20T03:29:18;11.70;;;9.45;;
44706;SDS011;30433;45.596;8.408;2023-08-20T03:35:21;10.63;;;9.07;;
44706;SDS011;30433;45.596;8.408;2023-08-20T03:41:24;11.40;;;9.18;;
44706;SDS011;30433;45.596;8.408;2023-08-20T03:47:26;10.25;;;9.23;;
44706;SDS011;30433;45.596;8.408;2023-08-20T03:53:30;10.73;;;8.50;;
44706;SDS011;30433;45.596;8.408;2023-08-20T03:59:32;10.85;;;9.07;;
44706;SDS011;30433;45.596;8.408;2023-08-20T04:05:35;10.15;;;9.07;;
44706;SDS011;30433;45.596;8.408;2023-08-20T04:11:39;10.30;;;8.95;;
44706;SDS011;30433;45.596;8.408;2023-08-20T04:17:41;10.55;;;9.27;;
44706;SDS011;30433;45.596;8.408;2023-08-20T04:23:44;9.65;;;8.52;;
44706;SDS011;30433;45.596;8.408;2023-08-20T04:29:47;10.25;;;9.15;;
44706;SDS011;30433;45.596;8.408;2023-08-20T04:35:50;14.23;;;10.40;;
44706;SDS011;30433;45.596;8.408;2023-08-20T04:41:52;13.60;;;9.27;;
44706;SDS011;30433;45.596;8.408;2023-08-20T04:47:59;10.75;;;9.65;;
44706;SDS011;30433;45.596;8.408;2023-08-20T04:54:01;9.85;;;8.95;;
44706;SDS011;30433;45.596;8.408;2023-08-20T05:00:05;12.77;;;9.63;;
44706;SDS011;30433;45.596;8.408;2023-08-20T05:06:11;10.20;;;9.15;;
44706;SDS011;30433;45.596;8.408;2023-08-20T05:12:13;11.65;;;9.52;;
44706;SDS011;30433;45.596;8.408;2023-08-20T05:18:15;11.07;;;9.18;;
44706;SDS011;30433;45.596;8.408;2023-08-20T05:24:19;11.18;;;10.07;;
44706;SDS011;30433;45.596;8.408;2023-08-20T05:30:21;11.25;;;8.70;;
44706;SDS011;30433;45.596;8.408;2023-08-20T05:36:24;10.35;;;9.30;;
44706;SDS011;30433;45.596;8.408;2023-08-20T05:42:28;15.20;;;9.38;;
44706;SDS011;30433;45.596;8.408;2023-08-20T05:48:30;10.73;;;9.48;;
44706;SDS011;30433;45.596;8.408;2023-08-20T05:54:32;10.00;;;9.00;;
44706;SDS011;30433;45.596;8.408;2023-08-20T06:00:36;10.60;;;9.50;;
44706;SDS011;30433;45.596;8.408;2023-08-20T06:06:39;10.85;;;8.93;;
44706;SDS011;30433;45.596;8.408;2023-08-20T06:12:41;10.93;;;9.27;;
44706;SDS011;30433;45.596;8.408;2023-08-20T06:18:45;11.25;;;9.85;;
44706;SDS011;30433;45.596;8.408;2023-08-20T06:24:47;10.75;;;9.10;;
44706;SDS011;30433;45.596;8.408;2023-08-20T06:30:50;10.77;;;9.30;;
44706;SDS011;30433;45.596;8.408;2023-08-20T06:36:53;11.02;;;8.68;;
44706;SDS011;30433;45.596;8.408;2023-08-20T06:42:56;11.77;;;8.80;;
44706;SDS011;30433;45.596;8.408;2023-08-20T06:48:58;10.30;;;8.80;;
44706;SDS011;30433;45.596;8.408;2023-08-20T06:55:02;10.55;;;8.85;;
44706;SDS011;30433;45.596;8.408;2023-08-20T07:01:05;11.90;;;8.98;;
44706;SDS011;30433;45.596;8.408;2023-08-20T07:07:12;10.10;;;9.05;;
44706;SDS011;30433;45.596;8.408;2023-08-20T07:13:16;9.45;;;8.60;;
44706;SDS011;30433;45.596;8.408;2023-08-20T07:19:18;12.32;;;8.80;;
44706;SDS011;30433;45.596;8.408;2023-08-20T07:25:21;9.55;;;8.48;;
44706;SDS011;30433;45.596;8.408;2023-08-20T07:31:25;10.90;;;9.45;;
44706;SDS011;30433;45.596;8.408;2023-08-20T07:37:28;30.92;;;10.35;;
44706;SDS011;30433;45.596;8.408;2023-08-20T07:43:30;12.05;;;9.15;;
44706;SDS011;30433;45.596;8.408;2023-08-20T07:49:33;9.52;;;8.60;;
44706;SDS011;30433;45.596;8.408;2023-08-20T07:55:36;25.50;;;10.13;;
44706;SDS011;30433;45.596;8.408;2023-08-20T08:01:38;14.30;;;9.57;;
44706;SDS011;30433;45.596;8.408;2023-08-20T08:07:42;13.02;;;9.40;;
44706;SDS011;30433;45.596;8.408;2023-08-20T08:13:44;10.63;;;8.55;;
44706;SDS011;30433;45.596;8.408;2023-08-20T08:19:47;10.10;;;8.30;;
44706;SDS011;30433;45.596;8.408;2023-08-20T08:25:50;9.02;;;8.13;;
44706;SDS011;30433;45.596;8.408;2023-08-20T08:31:53;9.65;;;7.85;;
44706;SDS011;30433;45.596;8.408;2023-08-20T08:37:55;10.80;;;7.80;;
44706;SDS011;30433;45.596;8.408;2023-08-20T08:44:00;8.90;;;7.65;;
44706;SDS011;30433;45.596;8.408;2023-08-20T08:50:04;7.97;;;7.18;;
44706;SDS011;30433;45.596;8.408;2023-08-20T08:56:08;7.95;;;7.25;;
44706;SDS011;30433;45.596;8.408;2023-08-20T09:02:12;16.08;;;13.00;;
44706;SDS011;30433;45.596;8.408;2023-08-20T09:08:19;7.57;;;6.88;;
44706;SDS011;30433;45.596;8.408;2023-08-20T09:14:22;9.02;;;6.80;;
44706;SDS011;30433;45.596;8.408;2023-08-20T09:20:35;8.48;;;6.15;;
44706;SDS011;30433;45.596;8.408;2023-08-20T09:26:37;8.13;;;7.30;;
44706;SDS011;30433;45.596;8.408;2023-08-20T09:32:39;8.45;;;7.38;;
44706;SDS011;30433;45.596;8.408;2023-08-20T09:38:43;7.85;;;7.05;;
44706;SDS011;30433;45.596;8.408;2023-08-20T09:44:46;10.85;;;6.72;;
44706;SDS011;30433;45.596;8.408;2023-08-20T09:50:49;7.22;;;6.35;;
44706;SDS011;30433;45.596;8.408;2023-08-20T09:56:58;7.40;;;6.53;;
44706;SDS011;30433;45.596;8.408;2023-08-20T10:03:02;7.43;;;6.72;;
44706;SDS011;30433;45.596;8.408;2023-08-20T10:09:05;9.73;;;6.47;;
44706;SDS011;30433;45.596;8.408;2023-08-20T10:15:10;9.07;;;7.03;;
44706;SDS011;30433;45.596;8.408;2023-08-20T10:21:13;8.48;;;7.13;;
44706;SDS011;30433;45.596;8.408;2023-08-20T10:27:23;15.55;;;7.30;;
44706;SDS011;30433;45.596;8.408;2023-08-20T10:33:28;10.32;;;7.55;;
44706;SDS011;30433;45.596;8.408;2023-08-20T10:39:31;9.85;;;6.93;;
44706;SDS011;30433;45.596;8.408;2023-08-20T10:45:37;11.27;;;7.28;;
44706;SDS011;30433;45.596;8.408;2023-08-20T10:51:46;9.88;;;7.60;;
44706;SDS011;30433;45.596;8.408;2023-08-20T10:57:54;8.40;;;7.57;;
44706;SDS011;30433;45.596;8.408;2023-08-20T11:03:57;8.43;;;7.18;;
44706;SDS011;30433;45.596;8.408;2023-08-20T11:10:06;8.85;;;7.15;;
44706;SDS011;30433;45.596;8.408;2023-08-20T11:16:09;11.90;;;7.30;;
44706;SDS011;30433;45.596;8.408;2023-08-20T11:22:12;10.32;;;7.55;;
44706;SDS011;30433;45.596;8.408;2023-08-20T11:28:17;8.25;;;7.45;;
44706;SDS011;30433;45.596;8.408;2023-08-20T11:34:20;8.82;;;7.18;;
44706;SDS011;30433;45.596;8.408;2023-08-20T11:40:22;8.73;;;7.65;;
44706;SDS011;30433;45.596;8.408;2023-08-20T11:46:27;9.52;;;7.55;;
44706;SDS011;30433;45.596;8.408;2023-08-20T11:52:30;9.25;;;8.15;;
44706;SDS011;30433;45.596;8.408;2023-08-20T11:58:33;9.30;;;8.40;;
44706;SDS011;30433;45.596;8.408;2023-08-20T12:04:37;9.07;;;8.02;;
44706;SDS011;30433;45.596;8.408;2023-08-20T12:10:41;11.27;;;8.32;;
44706;SDS011;30433;45.596;8.408;2023-08-20T12:16:44;9.48;;;8.30;;
44706;SDS011;30433;45.596;8.408;2023-08-20T12:22:48;10.73;;;7.93;;
44706;SDS011;30433;45.596;8.408;2023-08-20T12:28:51;9.77;;;8.77;;
44706;SDS011;30433;45.596;8.408;2023-08-20T12:34:55;10.20;;;8.25;;
44706;SDS011;30433;45.596;8.408;2023-08-20T12:40:59;8.93;;;8.07;;
44706;SDS011;30433;45.596;8.408;2023-08-20T12:47:02;37.05;;;11.25;;
44706;SDS011;30433;45.596;8.408;2023-08-20T12:53:04;10.05;;;8.95;;
44706;SDS011;30433;45.596;8.408;2023-08-20T12:59:08;19.33;;;8.85;;
44706;SDS011;30433;45.596;8.408;2023-08-20T13:05:11;11.32;;;8.50;;
44706;SDS011;30433;45.596;8.408;2023-08-20T13:11:16;9.35;;;8.00;;
44706;SDS011;30433;45.596;8.408;2023-08-20T13:17:21;8.98;;;8.18;;
44706;SDS011;30433;45.596;8.408;2023-08-20T13:23:24;10.05;;;8.85;;
44706;SDS011;30433;45.596;8.408;2023-08-20T13:29:26;12.55;;;8.60;;
44706;SDS011;30433;45.596;8.408;2023-08-20T13:35:30;9.65;;;8.73;;
44706;SDS011;30433;45.596;8.408;2023-08-20T13:41:33;9.40;;;8.60;;
44706;SDS011;30433;45.596;8.408;2023-08-20T13:47:35;11.43;;;8.90;;
44706;SDS011;30433;45.596;8.408;2023-08-20T13:53:39;9.75;;;8.80;;
44706;SDS011;30433;45.596;8.408;2023-08-20T13:59:42;9.32;;;8.40;;
44706;SDS011;30433;45.596;8.408;2023-08-20T14:05:44;9.98;;;8.32;;
44706;SDS011;30433;45.596;8.408;2023-08-20T14:11:49;10.30;;;7.97;;
44706;SDS011;30433;45.596;8.408;2023-08-20T14:17:51;9.77;;;8.90;;
44706;SDS011;30433;45.596;8.408;2023-08-20T14:23:54;18.63;;;15.75;;
44706;SDS011;30433;45.596;8.408;2023-08-20T14:29:58;10.13;;;8.50;;
44706;SDS011;30433;45.596;8.408;2023-08-20T14:36:00;13.10;;;9.68;;
44706;SDS011;30433;45.596;8.408;2023-08-20T14:42:03;9.93;;;8.68;;
44706;SDS011;30433;45.596;8.408;2023-08-20T14:48:08;10.65;;;9.48;;
44706;SDS011;30433;45.596;8.408;2023-08-20T14:54:10;12.02;;;9.10;;
44706;SDS011;30433;45.596;8.408;2023-08-20T15:00:13;9.52;;;8.52;;
44706;SDS011;30433;45.596;8.408;2023-08-20T15:06:18;10.23;;;9.23;;
44706;SDS011;30433;45.596;8.408;2023-08-20T15:12:22;10.88;;;9.30;;
44706;SDS011;30433;45.596;8.408;2023-08-20T15:18:24;9.77;;;8.88;;
44706;SDS011;30433;45.596;8.408;2023-08-20T15:24:28;10.52;;;9.43;;
44706;SDS011;30433;45.596;8.408;2023-08-20T15:30:32;10.85;;;9.23;;
44706;SDS011;30433;45.596;8.408;2023-08-20T15:36:34;11.60;;;8.90;;
44706;SDS011;30433;45.596;8.408;2023-08-20T15:42:39;10.10;;;9.20;;
44706;SDS011;30433;45.596;8.408;2023-08-20T15:48:42;10.90;;;9.75;;
44706;SDS011;30433;45.596;8.408;2023-08-20T15:54:44;9.82;;;8.52;;
44706;SDS011;30433;45.596;8.408;2023-08-20T16:00:48;9.75;;;8.93;;
44706;SDS011;30433;45.596;8.408;2023-08-20T16:06:50;11.05;;;9.02;;
44706;SDS011;30433;45.596;8.408;2023-08-20T16:12:52;9.60;;;8.77;;
44706;SDS011;30433;45.596;8.408;2023-08-20T16:18:56;10.13;;;8.73;;
44706;SDS011;30433;45.596;8.408;2023-08-20T16:24:59;9.95;;;8.45;;
44706;SDS011;30433;45.596;8.408;2023-08-20T16:31:04;10.32;;;9.18;;
44706;SDS011;30433;45.596;8.408;2023-08-20T16:37:08;10.25;;;8.43;;
44706;SDS011;30433;45.596;8.408;2023-08-20T16:43:10;10.13;;;9.13;;
44706;SDS011;30433;45.596;8.408;2023-08-20T16:49:13;10.20;;;8.95;;
44706;SDS011;30433;45.596;8.408;2023-08-20T16:55:17;10.20;;;9.10;;
44706;SDS011;30433;45.596;8.408;2023-08-20T17:01:20;13.93;;;9.38;;
44706;SDS011;30433;45.596;8.408;2023-08-20T17:07:22;10.15;;;9.25;;
44706;SDS011;30433;45.596;8.408;2023-08-20T17:13:26;24.50;;;10.73;;
44706;SDS011;30433;45.596;8.408;2023-08-20T17:19:28;10.40;;;9.30;;
44706;SDS011;30433;45.596;8.408;2023-08-20T17:25:31;12.35;;;9.52;;
44706;SDS011;30433;45.596;8.408;2023-08-20T17:31:35;11.60;;;10.65;;
44706;SDS011;30433;45.596;8.408;2023-08-20T17:37:38;10.60;;;9.63;;
44706;SDS011;30433;45.596;8.408;2023-08-20T17:43:40;12.55;;;10.70;;
44706;SDS011;30433;45.596;8.408;2023-08-20T17:49:44;15.13;;;10.60;;
44706;SDS011;30433;45.596;8.408;2023-08-20T17:55:46;11.95;;;10.60;;
44706;SDS011;30433;45.596;8.408;2023-08-20T18:01:50;10.80;;;9.90;;
44706;SDS011;30433;45.596;8.408;2023-08-20T18:07:54;12.82;;;10.80;;
44706;SDS011;30433;45.596;8.408;2023-08-20T18:13:56;11.98;;;10.70;;
44706;SDS011;30433;45.596;8.408;2023-08-20T18:19:59;12.07;;;10.88;;
44706;SDS011;30433;45.596;8.408;2023-08-20T18:26:06;12.65;;;11.48;;
44706;SDS011;30433;45.596;8.408;2023-08-20T18:32:09;12.57;;;11.48;;
44706;SDS011;30433;45.596;8.408;2023-08-20T18:38:14;12.80;;;11.60;;
44706;SDS011;30433;45.596;8.408;2023-08-20T18:44:20;12.60;;;11.52;;
44706;SDS011;30433;45.596;8.408;2023-08-20T18:50:22;12.95;;;11.75;;
44706;SDS011;30433;45.596;8.408;2023-08-20T18:56:25;16.73;;;12.43;;
44706;SDS011;30433;45.596;8.408;2023-08-20T19:02:29;13.18;;;11.75;;
44706;SDS011;30433;45.596;8.408;2023-08-20T19:08:31;13.23;;;11.95;;
44706;SDS011;30433;45.596;8.408;2023-08-20T19:14:33;13.15;;;11.93;;
44706;SDS011;30433;45.596;8.408;2023-08-20T19:20:38;13.35;;;11.98;;
44706;SDS011;30433;45.596;8.408;2023-08-20T19:26:46;12.80;;;11.50;;
44706;SDS011;30433;45.596;8.408;2023-08-20T19:32:48;13.15;;;11.98;;
44706;SDS011;30433;45.596;8.408;2023-08-20T19:38:52;13.68;;;12.48;;
44706;SDS011;30433;45.596;8.408;2023-08-20T19:44:55;13.10;;;11.77;;
44706;SDS011;30433;45.596;8.408;2023-08-20T19:50:59;13.27;;;11.98;;
44706;SDS011;30433;45.596;8.408;2023-08-20T19:57:03;13.40;;;12.23;;
44706;SDS011;30433;45.596;8.408;2023-08-20T20:03:06;14.82;;;13.15;;
44706;SDS011;30433;45.596;8.408;2023-08-20T20:09:09;14.35;;;13.05;;
44706;SDS011;30433;45.596;8.408;2023-08-20T20:15:14;13.32;;;12.10;;
44706;SDS011;30433;45.596;8.408;2023-08-20T20:21:16;15.02;;;13.52;;
44706;SDS011;30433;45.596;8.408;2023-08-20T20:27:19;13.02;;;11.77;;
44706;SDS011;30433;45.596;8.408;2023-08-20T20:33:23;13.65;;;12.40;;
44706;SDS011;30433;45.596;8.408;2023-08-20T20:39:26;13.65;;;12.35;;
44706;SDS011;30433;45.596;8.408;2023-08-20T20:45:30;13.93;;;12.55;;
44706;SDS011;30433;45.596;8.408;2023-08-20T20:51:33;13.57;;;12.27;;
44706;SDS011;30433;45.596;8.408;2023-08-20T20:57:36;14.35;;;13.05;;
44706;SDS011;30433;45.596;8.408;2023-08-20T21:03:39;13.90;;;12.48;;
44706;SDS011;30433;45.596;8.408;2023-08-20T21:09:43;13.90;;;12.57;;
44706;SDS011;30433;45.596;8.408;2023-08-20T21:15:45;13.75;;;12.40;;
44706;SDS011;30433;45.596;8.408;2023-08-20T21:21:48;13.55;;;12.27;;
44706;SDS011;30433;45.596;8.408;2023-08-20T21:27:52;15.25;;;12.82;;
44706;SDS011;30433;45.596;8.408;2023-08-20T21:33:54;13.52;;;12.23;;
44706;SDS011;30433;45.596;8.408;2023-08-20T21:39:56;13.82;;;12.70;;
44706;SDS011;30433;45.596;8.408;2023-08-20T21:46:00;13.48;;;12.18;;
44706;SDS011;30433;45.596;8.408;2023-08-20T21:52:03;13.30;;;12.00;;
44706;SDS011;30433;45.596;8.408;2023-08-20T21:58:06;13.40;;;12.20;;
44706;SDS011;30433;45.596;8.408;2023-08-20T22:04:09;13.18;;;11.85;;
44706;SDS011;30433;45.596;8.408;2023-08-20T22:10:12;13.65;;;12.25;;
44706;SDS011;30433;45.596;8.408;2023-08-20T22:16:17;13.50;;;12.18;;
44706;SDS011;30433;45.596;8.408;2023-08-20T22:22:21;13.90;;;12.60;;
44706;SDS011;30433;45.596;8.408;2023-08-20T22:28:24;14.10;;;12.77;;
44706;SDS011;30433;45.596;8.408;2023-08-20T22:34:26;13.02;;;11.73;;
44706;SDS011;30433;45.596;8.408;2023-08-20T22:40:30;13.68;;;12.27;;
44706;SDS011;30433;45.596;8.408;2023-08-20T22:46:33;13.02;;;11.73;;
44706;SDS011;30433;45.596;8.408;2023-08-20T22:52:36;14.02;;;12.38;;
44706;SDS011;30433;45.596;8.408;2023-08-20T22:58:39;13.02;;;11.85;;
44706;SDS011;30433;45.596;8.408;2023-08-20T23:04:42;13.73;;;12.32;;
44706;SDS011;30433;45.596;8.408;2023-08-20T23:10:44;12.82;;;11.82;;
44706;SDS011;30433;45.596;8.408;2023-08-20T23:16:48;13.10;;;11.98;;
44706;SDS011;30433;45.596;8.408;2023-08-20T23:22:50;13.38;;;12.18;;
44706;SDS011;30433;45.596;8.408;2023-08-20T23:28:53;13.60;;;12.30;;
44706;SDS011;30433;45.596;8.408;2023-08-20T23:34:57;13.13;;;11.88;;
44706;SDS011;30433;45.596;8.408;2023-08-20T23:40:59;12.52;;;11.50;;
44706;SDS011;30433;45.596;8.408;2023-08-20T23:47:02;12.77;;;11.63;;
44706;SDS011;30433;45.596;8.408;2023-08-20T23:53:05;13.00;;;11.93;;
44706;SDS011;30433;45.596;8.408;2023-08-20T23:59:08;13.07;;;11.77;;
